Time;durP1;ratioP1;P1;durP2;ratioP2;P2;SDS_P1;SDS_P2;PMS_P1;PMS_P2;Temp;Humidity;BMP_temperature;BMP_pressure;BME280_temperature;BME280_humidity;BME280_pressure;Samples;Min_cycle;Max_cycle;Signal;HPM_P1;HPM_P2
2021/12/30 00:00:45;;;;;;;35.83;5.43;;;9.60;99.90;;;;;;5013220;28;20060;-68
2021/12/30 00:03:11;;;;;;;24.75;5.15;;;9.60;99.90;;;;;;5013647;28;20064;-69
2021/12/30 00:05:37;;;;;;;30.75;5.43;;;9.50;99.90;;;;;;5014353;28;20409;-69
2021/12/30 00:08:04;;;;;;;28.50;6.35;;;9.50;99.90;;;;;;5029908;28;20046;-69
2021/12/30 00:10:29;;;;;;;24.48;5.70;;;9.50;99.90;;;;;;5015413;28;20061;-68
2021/12/30 00:12:55;;;;;;;36.22;6.13;;;9.50;99.90;;;;;;5016921;28;20042;-68
2021/12/30 00:15:21;;;;;;;33.33;5.93;;;9.50;99.90;;;;;;5018623;28;20112;-69
2021/12/30 00:17:47;;;;;;;35.40;5.90;;;9.50;99.90;;;;;;5020588;28;20041;-69
2021/12/30 00:20:13;;;;;;;31.05;5.65;;;9.50;99.90;;;;;;5019747;28;20426;-68
2021/12/30 00:22:41;;;;;;;34.58;5.60;;;9.50;99.90;;;;;;5019539;28;20122;-68
2021/12/30 00:25:08;;;;;;;32.40;5.90;;;9.40;99.90;;;;;;5034589;28;20518;-68
2021/12/30 00:27:33;;;;;;;30.90;4.88;;;9.40;99.90;;;;;;5015754;28;20447;-69
2021/12/30 00:29:59;;;;;;;38.42;5.95;;;9.40;99.90;;;;;;5014047;28;20073;-70
2021/12/30 00:32:24;;;;;;;40.60;7.20;;;9.40;99.90;;;;;;5013661;28;20049;-69
2021/12/30 00:34:50;;;;;;;29.85;5.65;;;9.40;99.90;;;;;;5029196;28;20057;-69
2021/12/30 00:37:15;;;;;;;26.75;5.40;;;9.30;99.90;;;;;;5013787;28;20454;-69
2021/12/30 00:39:41;;;;;;;32.88;6.75;;;9.40;99.90;;;;;;5013954;28;20533;-69
2021/12/30 00:42:07;;;;;;;30.05;6.15;;;9.30;99.90;;;;;;5013472;28;20042;-68
2021/12/30 00:44:33;;;;;;;31.13;5.47;;;9.30;99.90;;;;;;5028965;28;20049;-68
2021/12/30 00:46:59;;;;;;;36.97;6.18;;;9.30;99.90;;;;;;5013747;28;20472;-69
2021/12/30 00:49:25;;;;;;;31.10;6.15;;;9.30;99.90;;;;;;5013584;28;20041;-69
2021/12/30 00:51:52;;;;;;;29.50;5.95;;;9.30;99.90;;;;;;5013136;28;20129;-69
2021/12/30 00:54:18;;;;;;;46.15;7.22;;;9.30;99.90;;;;;;5028742;28;20065;-69
2021/12/30 00:56:44;;;;;;;33.53;5.20;;;9.30;99.90;;;;;;5013619;28;20041;-69
2021/12/30 00:59:10;;;;;;;36.22;6.85;;;9.30;99.90;;;;;;5013312;28;20414;-68
2021/12/30 01:01:36;;;;;;;35.35;7.15;;;9.30;99.90;;;;;;5013406;28;20048;-68
2021/12/30 01:04:02;;;;;;;38.60;7.03;;;9.30;99.90;;;;;;5013102;28;20434;-69
2021/12/30 01:06:28;;;;;;;38.30;5.97;;;9.30;99.90;;;;;;5013231;28;20049;-69
2021/12/30 01:08:54;;;;;;;35.88;5.63;;;9.20;99.90;;;;;;4995605;28;20045;-69
2021/12/30 01:11:22;;;;;;;42.38;5.93;;;9.30;99.90;;;;;;5013331;28;20054;-68
2021/12/30 01:13:55;;;;;;;40.78;7.32;;;9.20;99.90;;;;;;5012982;28;20034;-68
2021/12/30 01:16:24;;;;;;;38.13;6.00;;;9.20;99.90;;;;;;5013119;28;20171;-69
2021/12/30 01:19:04;;;;;;;42.88;5.72;;;9.20;99.90;;;;;;5011795;28;20041;-70
2021/12/30 01:21:33;;;;;;;31.90;6.22;;;9.20;99.90;;;;;;5012777;28;20499;-70
2021/12/30 01:24:00;;;;;;;38.72;6.78;;;9.20;99.90;;;;;;5013027;28;20121;-70
2021/12/30 01:26:26;;;;;;;34.83;5.65;;;9.10;99.90;;;;;;5012160;28;20159;-70
2021/12/30 01:28:53;;;;;;;28.80;5.85;;;9.00;99.90;;;;;;5012799;28;20121;-70
2021/12/30 01:31:18;;;;;;;37.80;6.38;;;9.10;99.90;;;;;;5013915;28;20098;-70
2021/12/30 01:33:46;;;;;;;34.70;5.80;;;9.10;99.90;;;;;;5014217;28;20539;-69
2021/12/30 01:36:13;;;;;;;40.22;6.45;;;9.10;99.90;;;;;;5030276;28;20037;-69
2021/12/30 01:38:39;;;;;;;30.45;6.65;;;9.10;99.90;;;;;;5015749;28;20073;-69
2021/12/30 01:41:07;;;;;;;40.35;7.15;;;9.10;99.90;;;;;;5012671;28;20145;-70
2021/12/30 01:43:35;;;;;;;33.65;6.32;;;9.10;99.90;;;;;;5012367;28;20088;-69
2021/12/30 01:46:03;;;;;;;36.22;5.60;;;9.10;99.90;;;;;;5012572;28;20431;-68
2021/12/30 01:48:29;;;;;;;41.65;7.35;;;9.10;99.90;;;;;;5012899;28;20050;-69
2021/12/30 01:50:55;;;;;;;39.80;6.40;;;9.10;99.90;;;;;;5012946;28;20038;-69
2021/12/30 01:53:21;;;;;;;42.70;6.55;;;9.10;99.90;;;;;;5030599;28;20041;-68
2021/12/30 01:55:48;;;;;;;41.90;6.68;;;9.10;99.90;;;;;;5014290;28;20117;-69
2021/12/30 01:58:14;;;;;;;35.58;6.45;;;9.00;99.90;;;;;;5015013;28;20046;-68
2021/12/30 02:00:42;;;;;;;31.20;6.22;;;9.10;99.90;;;;;;5014697;28;20049;-69
2021/12/30 02:03:09;;;;;;;41.65;7.50;;;9.10;99.90;;;;;;5011890;28;20046;-69
2021/12/30 02:05:37;;;;;;;35.38;6.53;;;9.10;99.90;;;;;;5012533;28;20560;-70
2021/12/30 02:08:05;;;;;;;36.28;6.47;;;9.10;99.90;;;;;;5011941;28;20041;-70
2021/12/30 02:10:30;;;;;;;42.70;7.18;;;9.10;99.90;;;;;;5012153;28;20103;-70
2021/12/30 02:12:56;;;;;;;30.63;6.88;;;9.20;99.90;;;;;;5011666;28;20116;-70
2021/12/30 02:15:22;;;;;;;40.40;6.80;;;9.20;99.90;;;;;;5012082;28;20041;-70
2021/12/30 02:17:50;;;;;;;35.25;6.68;;;9.20;99.90;;;;;;5012294;28;20457;-70
2021/12/30 02:20:46;;;;;;;46.63;8.75;;;9.20;99.90;;;;;;5012054;28;20116;-70
2021/12/30 02:23:33;;;;;;;46.88;8.68;;;9.20;99.90;;;;;;5011661;28;20049;-70
2021/12/30 02:26:11;;;;;;;29.58;7.60;;;9.20;99.90;;;;;;5011608;28;20072;-70
2021/12/30 02:28:37;;;;;;;33.72;9.60;;;9.20;99.90;;;;;;5010637;28;20038;-69
2021/12/30 02:31:12;;;;;;;43.03;10.48;;;9.30;99.90;;;;;;5027093;28;20112;-69
2021/12/30 02:33:39;;;;;;;37.28;9.73;;;9.30;99.90;;;;;;5011727;28;20045;-69
2021/12/30 02:36:05;;;;;;;45.22;11.27;;;9.20;99.90;;;;;;5011907;28;20380;-70
2021/12/30 02:38:31;;;;;;;50.55;11.80;;;9.30;99.90;;;;;;5010566;28;20053;-70
2021/12/30 02:40:58;;;;;;;43.95;11.40;;;9.30;99.90;;;;;;5010229;28;20041;-70
2021/12/30 02:43:29;;;;;;;46.97;12.35;;;9.30;99.90;;;;;;5011732;28;20048;-69
2021/12/30 02:45:56;;;;;;;44.15;11.48;;;9.40;99.90;;;;;;5012497;28;20075;-70
2021/12/30 02:48:25;;;;;;;48.08;11.88;;;9.40;99.90;;;;;;5012901;28;20045;-70
2021/12/30 02:50:52;;;;;;;41.85;11.50;;;9.40;99.90;;;;;;5011787;28;20050;-70
2021/12/30 02:53:20;;;;;;;46.50;12.73;;;9.50;99.90;;;;;;5011388;28;20096;-69
2021/12/30 02:55:46;;;;;;;52.50;13.23;;;9.50;99.90;;;;;;5011417;28;20042;-70
2021/12/30 02:58:12;;;;;;;40.03;12.98;;;9.50;99.90;;;;;;5011363;28;20044;-70
2021/12/30 03:00:39;;;;;;;62.33;14.68;;;9.50;99.90;;;;;;5012022;28;20042;-70
2021/12/30 03:03:05;;;;;;;46.60;13.70;;;9.50;99.90;;;;;;5014473;28;20048;-70
2021/12/30 03:05:31;;;;;;;49.30;12.60;;;9.60;99.90;;;;;;5015233;28;20077;-69
2021/12/30 03:07:57;;;;;;;47.25;14.70;;;9.60;99.90;;;;;;5028013;28;20431;-70
2021/12/30 03:10:25;;;;;;;58.47;13.70;;;9.60;99.90;;;;;;5014726;28;20084;-70
2021/12/30 03:12:56;;;;;;;58.13;13.27;;;9.60;99.90;;;;;;5014811;28;20581;-69
2021/12/30 03:15:23;;;;;;;53.92;13.13;;;9.60;99.90;;;;;;5014254;28;20053;-69
2021/12/30 03:17:49;;;;;;;48.22;12.85;;;9.70;99.90;;;;;;5013377;28;20087;-70
2021/12/30 03:20:15;;;;;;;59.92;12.55;;;9.70;99.90;;;;;;5010003;28;20083;-70
2021/12/30 03:22:42;;;;;;;40.28;12.50;;;9.70;99.90;;;;;;5011177;28;20052;-69
2021/12/30 03:25:11;;;;;;;49.72;12.15;;;9.70;99.90;;;;;;5011178;28;20067;-70
2021/12/30 03:27:37;;;;;;;51.03;13.13;;;9.70;99.90;;;;;;5011050;28;20045;-70
2021/12/30 03:30:11;;;;;;;55.05;14.43;;;9.80;99.90;;;;;;5010948;28;20045;-69
2021/12/30 03:32:37;;;;;;;45.28;11.68;;;9.80;99.90;;;;;;5010752;28;20045;-70
2021/12/30 03:35:03;;;;;;;49.88;12.32;;;9.80;99.90;;;;;;5026441;28;20037;-69
2021/12/30 03:37:29;;;;;;;54.60;13.45;;;9.90;99.90;;;;;;5011180;28;20049;-70
2021/12/30 03:39:55;;;;;;;58.25;12.63;;;9.90;99.90;;;;;;5010935;28;20042;-70
2021/12/30 03:42:20;;;;;;;49.17;11.95;;;9.90;99.90;;;;;;5010687;28;20041;-70
2021/12/30 03:44:46;;;;;;;40.30;11.35;;;9.90;99.90;;;;;;5010765;28;20063;-70
2021/12/30 03:47:17;;;;;;;46.80;11.48;;;9.90;99.90;;;;;;5011056;28;20073;-70
2021/12/30 03:49:45;;;;;;;53.13;12.82;;;10.00;99.90;;;;;;5011178;28;20495;-69
2021/12/30 03:52:20;;;;;;;50.88;12.38;;;10.00;99.90;;;;;;5014625;28;20124;-69
2021/12/30 03:54:46;;;;;;;44.33;11.95;;;10.00;99.90;;;;;;5014840;28;20034;-69
2021/12/30 03:57:12;;;;;;;55.47;11.98;;;10.00;99.90;;;;;;5014458;28;20041;-69
2021/12/30 03:59:38;;;;;;;46.17;11.93;;;10.00;99.90;;;;;;5014838;28;20096;-70
2021/12/30 04:02:04;;;;;;;53.28;12.48;;;10.00;99.90;;;;;;5032932;28;20494;-70
2021/12/30 04:04:30;;;;;;;50.97;11.45;;;10.00;99.90;;;;;;5017940;28;20188;-69
2021/12/30 04:06:55;;;;;;;49.88;10.13;;;10.00;99.90;;;;;;5014811;28;20058;-68
2021/12/30 04:09:21;;;;;;;46.05;10.60;;;10.00;99.90;;;;;;5029709;28;20082;-69
2021/12/30 04:11:47;;;;;;;41.42;10.93;;;10.10;99.90;;;;;;5014157;28;20124;-69
2021/12/30 04:14:13;;;;;;;40.53;9.70;;;10.10;99.90;;;;;;5013384;28;20477;-70
2021/12/30 04:16:38;;;;;;;39.95;9.45;;;10.10;99.90;;;;;;5014548;28;20072;-69
2021/12/30 04:19:05;;;;;;;45.47;9.98;;;10.10;99.90;;;;;;5014528;28;20517;-70
2021/12/30 04:21:30;;;;;;;47.45;10.10;;;10.10;99.90;;;;;;5029376;28;20061;-70
2021/12/30 04:23:56;;;;;;;53.80;10.07;;;10.10;99.90;;;;;;5013935;28;20417;-69
2021/12/30 04:26:22;;;;;;;47.95;9.45;;;10.10;99.90;;;;;;5014450;28;20077;-69
2021/12/30 04:28:47;;;;;;;52.03;10.57;;;10.10;99.90;;;;;;5015685;28;20041;-70
2021/12/30 04:31:13;;;;;;;47.25;10.13;;;10.20;99.90;;;;;;5013751;28;20044;-70
2021/12/30 04:33:39;;;;;;;51.05;10.55;;;10.20;99.90;;;;;;5014505;28;20045;-70
2021/12/30 04:36:06;;;;;;;44.78;10.48;;;10.20;99.90;;;;;;5012819;28;20045;-70
2021/12/30 04:38:32;;;;;;;52.60;11.38;;;10.20;99.90;;;;;;5013786;28;20088;-70
2021/12/30 04:40:58;;;;;;;44.83;10.38;;;10.20;99.90;;;;;;5013785;28;20045;-70
2021/12/30 04:43:24;;;;;;;61.88;11.55;;;10.20;99.90;;;;;;5013607;28;20095;-70
2021/12/30 04:45:50;;;;;;;58.25;11.65;;;10.20;99.90;;;;;;5029022;28;20050;-70
2021/12/30 04:48:17;;;;;;;52.30;10.95;;;10.30;99.90;;;;;;5012442;28;20056;-70
2021/12/30 04:50:45;;;;;;;45.88;12.75;;;10.30;99.90;;;;;;5013662;28;20120;-70
2021/12/30 04:53:11;;;;;;;51.20;11.85;;;10.30;99.90;;;;;;5013330;28;20128;-70
2021/12/30 04:55:37;;;;;;;43.75;13.13;;;10.30;99.90;;;;;;5013461;28;20736;-70
2021/12/30 04:58:04;;;;;;;48.15;12.52;;;10.30;99.90;;;;;;5013491;28;20113;-70
2021/12/30 05:00:31;;;;;;;50.72;13.15;;;10.30;99.90;;;;;;5013513;28;20050;-70
2021/12/30 05:03:08;;;;;;;51.13;13.60;;;10.30;99.90;;;;;;5027058;28;20100;-69
2021/12/30 05:05:52;;;;;;;43.65;14.18;;;10.30;99.90;;;;;;5012196;28;20046;-69
2021/12/30 05:08:21;;;;;;;48.70;13.32;;;10.40;99.90;;;;;;5013504;28;20038;-69
2021/12/30 05:10:48;;;;;;;43.05;11.73;;;10.30;99.90;;;;;;5013378;28;20057;-69
2021/12/30 05:13:15;;;;;;;41.22;12.63;;;10.30;99.90;;;;;;5028205;28;20683;-69
2021/12/30 05:15:41;;;;;;;36.63;12.75;;;10.30;99.90;;;;;;5013581;28;20050;-70
2021/12/30 05:18:09;;;;;;;36.88;12.32;;;10.40;99.90;;;;;;5015075;28;20067;-69
2021/12/30 05:20:35;;;;;;;36.63;12.82;;;10.40;99.90;;;;;;5016048;28;20061;-69
2021/12/30 05:23:01;;;;;;;33.33;12.75;;;10.40;99.90;;;;;;5012936;28;20046;-70
2021/12/30 05:25:27;;;;;;;35.72;12.88;;;10.40;99.90;;;;;;5013022;28;20410;-70
2021/12/30 05:27:53;;;;;;;25.73;12.63;;;10.30;99.90;;;;;;5012856;28;20050;-69
2021/12/30 05:30:21;;;;;;;32.75;12.75;;;10.30;99.90;;;;;;5012912;28;20049;-69
2021/12/30 05:32:47;;;;;;;26.52;12.70;;;10.40;99.90;;;;;;5012634;28;20042;-68
2021/12/30 05:35:14;;;;;;;25.77;12.00;;;10.30;99.90;;;;;;5013110;28;20073;-70
2021/12/30 05:37:41;;;;;;;31.65;11.65;;;10.40;99.90;;;;;;5012922;28;20061;-70
2021/12/30 05:40:10;;;;;;;23.63;11.25;;;10.40;99.90;;;;;;5028000;28;20113;-71
2021/12/30 05:42:36;;;;;;;23.85;10.85;;;10.40;99.90;;;;;;5012585;28;20125;-69
2021/12/30 05:45:03;;;;;;;29.35;11.63;;;10.40;99.90;;;;;;5012676;28;20109;-70
2021/12/30 05:47:29;;;;;;;29.17;11.43;;;10.40;99.90;;;;;;5027843;28;20044;-69
2021/12/30 05:49:55;;;;;;;28.75;12.40;;;10.50;99.90;;;;;;5012659;28;20037;-70
2021/12/30 05:52:21;;;;;;;26.48;13.25;;;10.50;99.90;;;;;;5012417;28;20516;-69
2021/12/30 05:54:46;;;;;;;27.70;11.80;;;10.50;99.90;;;;;;5012658;28;20046;-69
2021/12/30 05:57:12;;;;;;;24.13;11.30;;;10.50;99.90;;;;;;5012577;28;20070;-68
2021/12/30 05:59:38;;;;;;;27.27;11.13;;;10.50;99.90;;;;;;5012419;28;20498;-68
2021/12/30 06:02:04;;;;;;;26.08;11.23;;;10.50;99.90;;;;;;5027470;28;20048;-69
2021/12/30 06:04:29;;;;;;;28.80;11.25;;;10.60;99.90;;;;;;5012508;28;20038;-69
2021/12/30 06:06:55;;;;;;;26.92;12.13;;;10.60;99.90;;;;;;5012366;28;20046;-69
2021/12/30 06:09:24;;;;;;;34.35;12.48;;;10.60;99.90;;;;;;5012057;28;20510;-69
2021/12/30 06:11:49;;;;;;;30.52;13.40;;;10.70;99.90;;;;;;5010452;28;20046;-68
2021/12/30 06:14:15;;;;;;;28.38;12.80;;;10.70;99.90;;;;;;5011707;28;20037;-68
2021/12/30 06:16:41;;;;;;;33.70;12.52;;;10.70;99.90;;;;;;5012042;28;20034;-69
2021/12/30 06:19:06;;;;;;;33.38;12.63;;;10.70;99.90;;;;;;5012362;28;20042;-69
2021/12/30 06:21:32;;;;;;;32.17;12.32;;;10.70;99.90;;;;;;5010706;28;20065;-69
2021/12/30 06:23:57;;;;;;;35.90;14.02;;;10.70;99.90;;;;;;5011792;28;20069;-68
2021/12/30 06:26:23;;;;;;;37.65;13.55;;;10.80;99.90;;;;;;5011863;28;20488;-68
2021/12/30 06:28:49;;;;;;;39.22;14.25;;;10.80;99.90;;;;;;5011718;28;20506;-68
2021/12/30 06:31:14;;;;;;;37.22;14.40;;;10.70;99.90;;;;;;5010459;28;20087;-70
2021/12/30 06:33:40;;;;;;;36.15;14.93;;;10.80;99.90;;;;;;5011897;28;20120;-70
2021/12/30 06:36:06;;;;;;;33.80;13.60;;;10.80;99.90;;;;;;5012122;28;20037;-68
2021/12/30 06:38:35;;;;;;;37.97;15.15;;;10.80;99.90;;;;;;5011910;28;20442;-69
2021/12/30 06:41:00;;;;;;;38.50;14.98;;;10.90;99.90;;;;;;5011652;28;20607;-70
2021/12/30 06:43:26;;;;;;;44.58;15.10;;;10.90;99.90;;;;;;5011318;28;20077;-69
2021/12/30 06:45:51;;;;;;;41.65;15.45;;;10.90;99.90;;;;;;5011604;28;20127;-69
2021/12/30 06:48:17;;;;;;;43.33;14.35;;;10.90;99.90;;;;;;5011889;28;20311;-69
2021/12/30 06:50:52;;;;;;;38.55;13.98;;;11.00;99.90;;;;;;5010322;28;20042;-68
2021/12/30 06:53:22;;;;;;;34.17;14.30;;;11.00;99.90;;;;;;5011265;28;20406;-68
2021/12/30 06:55:50;;;;;;;39.88;15.45;;;11.00;99.90;;;;;;5011513;28;20049;-68
2021/12/30 06:58:16;;;;;;;37.55;13.98;;;11.00;99.90;;;;;;5011291;28;20046;-68
2021/12/30 07:00:42;;;;;;;34.72;13.23;;;11.00;99.90;;;;;;5011339;28;20042;-68
2021/12/30 07:03:08;;;;;;;36.33;13.45;;;11.10;99.90;;;;;;5026112;28;20049;-69
2021/12/30 07:05:34;;;;;;;33.20;13.40;;;11.10;99.90;;;;;;5011509;28;20526;-70
2021/12/30 07:08:00;;;;;;;34.60;13.07;;;11.10;99.90;;;;;;5011333;28;20084;-70
2021/12/30 07:10:27;;;;;;;29.52;13.77;;;11.10;99.90;;;;;;5011181;28;20100;-70
2021/12/30 07:12:53;;;;;;;28.10;12.05;;;11.10;99.90;;;;;;5026112;28;20129;-69
2021/12/30 07:15:20;;;;;;;26.15;12.15;;;11.10;99.90;;;;;;5011415;28;20116;-69
2021/12/30 07:17:46;;;;;;;24.30;11.98;;;11.10;99.90;;;;;;5026465;28;20741;-70
2021/12/30 07:20:13;;;;;;;27.65;12.43;;;11.10;99.90;;;;;;5011145;28;20042;-68
2021/12/30 07:22:39;;;;;;;28.63;12.02;;;11.20;99.90;;;;;;5011229;28;20034;-68
2021/12/30 07:25:05;;;;;;;20.70;10.88;;;11.20;99.90;;;;;;5012291;28;20120;-68
2021/12/30 07:27:31;;;;;;;27.08;10.80;;;11.20;99.90;;;;;;5014885;28;20096;-68
2021/12/30 07:29:59;;;;;;;18.95;9.73;;;11.20;99.90;;;;;;5019577;28;20069;-70
2021/12/30 07:32:27;;;;;;;17.88;9.63;;;11.20;99.90;;;;;;5025602;28;20406;-69
2021/12/30 07:34:53;;;;;;;18.10;9.93;;;11.20;99.90;;;;;;5033897;28;20073;-69
2021/12/30 07:37:19;;;;;;;22.73;9.10;;;11.30;99.90;;;;;;5033959;28;20068;-69
2021/12/30 07:39:46;;;;;;;18.00;8.68;;;11.20;99.90;;;;;;5032448;28;20033;-68
2021/12/30 07:42:13;;;;;;;13.45;7.70;;;11.20;99.90;;;;;;5031483;28;20128;-69
2021/12/30 07:44:39;;;;;;;13.52;7.03;;;11.30;99.90;;;;;;5032655;28;20073;-69
2021/12/30 07:47:06;;;;;;;11.32;6.90;;;11.30;99.90;;;;;;5033793;28;20046;-70
2021/12/30 07:49:32;;;;;;;11.52;6.35;;;11.30;99.90;;;;;;5032186;28;20037;-70
2021/12/30 07:51:58;;;;;;;11.95;6.28;;;11.30;99.90;;;;;;5033326;28;20073;-69
2021/12/30 07:54:24;;;;;;;12.55;6.18;;;11.30;99.90;;;;;;5031738;28;20049;-69
2021/12/30 07:56:50;;;;;;;9.23;5.28;;;11.30;99.90;;;;;;5033335;28;20047;-69
2021/12/30 07:59:16;;;;;;;9.80;5.90;;;11.40;99.90;;;;;;5034041;28;20041;-69
2021/12/30 08:01:41;;;;;;;9.70;5.95;;;11.40;99.90;;;;;;5034002;28;20045;-69
2021/12/30 08:04:07;;;;;;;10.75;5.53;;;11.30;99.90;;;;;;5032372;28;20045;-70
2021/12/30 08:06:33;;;;;;;7.65;4.93;;;11.30;99.90;;;;;;5033135;28;20037;-70
2021/12/30 08:08:59;;;;;;;7.03;4.68;;;11.40;99.90;;;;;;5031173;28;20045;-70
2021/12/30 08:11:25;;;;;;;7.80;4.68;;;11.40;99.90;;;;;;5030932;28;20033;-70
2021/12/30 08:13:59;;;;;;;8.70;5.50;;;11.40;99.90;;;;;;5032046;28;20052;-70
2021/12/30 08:16:29;;;;;;;8.35;5.22;;;11.40;99.90;;;;;;5034357;28;20042;-70
2021/12/30 08:18:55;;;;;;;7.63;4.40;;;11.40;99.90;;;;;;5033968;28;20029;-69
2021/12/30 08:21:22;;;;;;;9.30;4.85;;;11.40;99.90;;;;;;5033399;28;20095;-70
2021/12/30 08:23:51;;;;;;;6.75;4.55;;;11.40;99.90;;;;;;5033568;28;20047;-71
2021/12/30 08:26:17;;;;;;;4.90;3.92;;;11.40;99.90;;;;;;5032604;28;20120;-70
2021/12/30 08:28:42;;;;;;;6.82;4.45;;;11.40;99.90;;;;;;5033719;28;20038;-70
2021/12/30 08:31:08;;;;;;;8.10;4.68;;;11.40;99.90;;;;;;5033687;28;20041;-69
2021/12/30 08:33:33;;;;;;;5.93;4.15;;;11.50;99.90;;;;;;5031467;28;20041;-69
2021/12/30 08:35:59;;;;;;;7.13;4.63;;;11.50;99.90;;;;;;5032854;28;20262;-69
2021/12/30 08:38:25;;;;;;;7.32;5.07;;;11.50;99.90;;;;;;5031177;28;20516;-69
2021/12/30 08:40:51;;;;;;;11.13;5.65;;;11.50;99.90;;;;;;5033220;28;20382;-69
2021/12/30 08:43:17;;;;;;;12.20;7.30;;;11.60;99.90;;;;;;5033532;28;20044;-70
2021/12/30 08:45:43;;;;;;;16.73;7.15;;;11.60;99.90;;;;;;5033144;28;20044;-70
2021/12/30 08:48:09;;;;;;;18.02;8.85;;;11.60;99.90;;;;;;5031493;28;20045;-71
2021/12/30 08:50:35;;;;;;;14.75;8.80;;;11.70;99.90;;;;;;5032321;28;20420;-72
2021/12/30 08:53:01;;;;;;;14.48;10.00;;;11.70;99.90;;;;;;5032059;28;20128;-71
2021/12/30 08:55:27;;;;;;;15.95;8.80;;;11.70;99.90;;;;;;5033492;28;20120;-71
2021/12/30 08:57:53;;;;;;;17.40;9.80;;;11.70;99.90;;;;;;5033456;28;20561;-73
2021/12/30 09:00:25;;;;;;;21.50;10.30;;;11.80;99.90;;;;;;5031280;28;20047;-72
2021/12/30 09:02:53;;;;;;;23.35;10.90;;;11.90;99.90;;;;;;5051098;28;20436;-71
2021/12/30 09:05:21;;;;;;;20.10;11.15;;;11.90;99.90;;;;;;5033879;28;20096;-71
2021/12/30 09:07:47;;;;;;;23.17;11.23;;;11.90;99.90;;;;;;5034908;28;20033;-71
2021/12/30 09:10:15;;;;;;;19.98;11.32;;;11.90;99.90;;;;;;5032895;28;20030;-70
2021/12/30 09:12:43;;;;;;;22.50;12.00;;;11.90;99.90;;;;;;5032468;28;20124;-70
2021/12/30 09:15:15;;;;;;;23.65;12.18;;;11.90;99.90;;;;;;5015073;28;20046;-71
2021/12/30 09:17:42;;;;;;;25.77;11.38;;;11.90;99.90;;;;;;5032629;28;20045;-71
2021/12/30 09:20:10;;;;;;;17.65;11.93;;;11.90;99.90;;;;;;5023965;28;20112;-71
2021/12/30 09:22:35;;;;;;;21.00;10.68;;;11.90;99.90;;;;;;5012805;28;20518;-71
2021/12/30 09:25:05;;;;;;;19.35;11.07;;;11.90;99.90;;;;;;5012892;28;20050;-71
2021/12/30 09:27:33;;;;;;;22.65;10.73;;;11.90;99.90;;;;;;5012113;28;20507;-71
2021/12/30 09:29:59;;;;;;;19.65;11.05;;;11.90;99.90;;;;;;5011440;28;20038;-72
2021/12/30 09:32:25;;;;;;;28.50;12.38;;;11.90;99.90;;;;;;5011294;28;20042;-71
2021/12/30 09:34:51;;;;;;;21.92;11.20;;;11.90;99.90;;;;;;5021682;28;20117;-71
2021/12/30 09:37:16;;;;;;;25.75;11.95;;;11.90;99.90;;;;;;4995307;28;20117;-71
2021/12/30 09:39:42;;;;;;;25.58;11.70;;;11.90;99.90;;;;;;5023311;28;20040;-71
2021/12/30 09:42:08;;;;;;;23.13;11.27;;;11.90;99.90;;;;;;5031465;28;20454;-70
2021/12/30 09:44:34;;;;;;;23.25;11.57;;;11.90;99.90;;;;;;5012968;28;20121;-70
2021/12/30 09:47:00;;;;;;;23.92;10.70;;;11.90;99.90;;;;;;5012862;28;20143;-70
2021/12/30 09:49:27;;;;;;;20.92;11.40;;;11.90;99.90;;;;;;5019867;28;20056;-72
2021/12/30 09:51:52;;;;;;;19.70;11.10;;;11.90;99.90;;;;;;5030657;28;20434;-71
2021/12/30 09:54:18;;;;;;;20.67;10.30;;;11.90;99.90;;;;;;5030868;28;20034;-71
2021/12/30 09:56:45;;;;;;;21.98;10.85;;;12.00;99.90;;;;;;5033607;28;20076;-71
2021/12/30 09:59:12;;;;;;;20.88;9.93;;;12.00;99.90;;;;;;5025910;28;20121;-71
2021/12/30 10:01:39;;;;;;;25.10;11.32;;;12.00;99.90;;;;;;5019259;28;20048;-71
2021/12/30 10:04:07;;;;;;;18.77;11.15;;;12.00;99.90;;;;;;5027391;28;20045;-72
2021/12/30 10:06:33;;;;;;;19.08;9.45;;;12.00;99.90;;;;;;5031005;28;20397;-71
2021/12/30 10:09:05;;;;;;;22.80;10.15;;;12.00;99.90;;;;;;5030739;28;20048;-72
2021/12/30 10:11:41;;;;;;;22.38;10.85;;;12.00;99.90;;;;;;5030555;28;20041;-72
2021/12/30 10:14:07;;;;;;;17.65;9.10;;;12.00;99.90;;;;;;5031144;28;20037;-72
2021/12/30 10:16:32;;;;;;;30.23;12.38;;;12.10;99.90;;;;;;5016158;28;20034;-73
2021/12/30 10:19:02;;;;;;;29.10;9.50;;;12.00;99.90;;;;;;5032440;28;20108;-72
2021/12/30 10:21:40;;;;;;;22.77;9.32;;;12.00;99.90;;;;;;5014379;28;20095;-72
2021/12/30 10:24:09;;;;;;;25.65;9.30;;;12.10;99.90;;;;;;5014721;28;20076;-72
2021/12/30 10:26:57;;;;;;;23.50;9.27;;;12.00;99.90;;;;;;5031683;28;20045;-73
2021/12/30 10:29:25;;;;;;;26.95;9.30;;;12.10;99.90;;;;;;5030136;28;20052;-72
2021/12/30 10:31:53;;;;;;;21.63;8.15;;;12.00;99.90;;;;;;5013567;28;20072;-72
2021/12/30 10:34:19;;;;;;;24.33;9.13;;;12.10;99.90;;;;;;5030957;28;20045;-71
2021/12/30 10:36:47;;;;;;;19.30;7.90;;;12.10;99.90;;;;;;5030158;28;20386;-71
2021/12/30 10:39:21;;;;;;;18.17;8.52;;;12.10;99.90;;;;;;5030369;28;20433;-71
2021/12/30 10:41:49;;;;;;;26.52;7.90;;;12.10;99.90;;;;;;5030136;28;20531;-70
2021/12/30 10:44:16;;;;;;;20.77;7.15;;;12.10;99.90;;;;;;5031009;28;20493;-70
2021/12/30 10:46:42;;;;;;;12.77;5.88;;;12.10;99.90;;;;;;5031331;28;20120;-72
2021/12/30 10:49:20;;;;;;;15.48;6.25;;;12.10;99.90;;;;;;5031269;28;20120;-71
2021/12/30 10:51:48;;;;;;;23.42;6.03;;;12.10;99.90;;;;;;5030919;28;20045;-71
2021/12/30 10:54:30;;;;;;;17.05;6.00;;;12.10;99.90;;;;;;5031521;28;20098;-71
2021/12/30 10:57:06;;;;;;;17.83;5.75;;;12.10;99.90;;;;;;5023518;28;20065;-71
2021/12/30 10:59:33;;;;;;;22.13;6.80;;;12.10;99.90;;;;;;5011452;28;20448;-71
2021/12/30 11:02:09;;;;;;;20.33;6.35;;;12.10;99.90;;;;;;5011329;28;20091;-70
2021/12/30 11:04:46;;;;;;;29.80;7.40;;;12.10;99.90;;;;;;5010334;28;20046;-71
2021/12/30 11:07:17;;;;;;;26.80;6.57;;;12.10;99.90;;;;;;5010672;28;20133;-70
2021/12/30 11:09:48;;;;;;;16.15;6.43;;;12.10;99.90;;;;;;5025294;28;20038;-70
2021/12/30 11:12:14;;;;;;;20.30;6.80;;;12.20;99.90;;;;;;5028992;28;20505;-70
2021/12/30 11:14:40;;;;;;;21.30;6.57;;;12.20;99.90;;;;;;5017450;28;20072;-71
2021/12/30 11:17:14;;;;;;;26.50;6.32;;;12.20;99.90;;;;;;5046427;28;20052;-70
2021/12/30 11:19:43;;;;;;;30.75;6.85;;;12.20;99.90;;;;;;5030981;28;20077;-70
2021/12/30 11:22:17;;;;;;;34.65;6.60;;;12.20;99.90;;;;;;5031151;28;20095;-70
2021/12/30 11:24:44;;;;;;;33.30;7.68;;;12.20;99.90;;;;;;5030014;28;20049;-70
2021/12/30 11:27:11;;;;;;;31.60;7.68;;;12.20;99.90;;;;;;5030427;28;20050;-70
2021/12/30 11:29:39;;;;;;;32.90;7.38;;;12.20;99.90;;;;;;5031023;28;20107;-69
2021/12/30 11:32:07;;;;;;;31.73;7.97;;;12.20;99.90;;;;;;5013956;28;20095;-70
2021/12/30 11:34:33;;;;;;;30.08;7.57;;;12.20;99.90;;;;;;5031728;28;20037;-70
2021/12/30 11:36:59;;;;;;;23.38;7.80;;;12.10;99.90;;;;;;5013556;28;20059;-70
2021/12/30 11:39:26;;;;;;;38.53;7.72;;;12.10;99.90;;;;;;5029420;28;20116;-71
2021/12/30 11:42:08;;;;;;;37.70;7.32;;;12.10;99.90;;;;;;5029084;28;20084;-72
2021/12/30 11:45:02;;;;;;;24.85;6.60;;;12.20;99.90;;;;;;5031799;28;20517;-71
2021/12/30 11:47:34;;;;;;;32.90;6.88;;;12.10;99.90;;;;;;5031368;28;20045;-70
2021/12/30 11:50:02;;;;;;;26.42;6.78;;;12.10;99.90;;;;;;5029319;28;20345;-71
2021/12/30 11:52:46;;;;;;;38.72;8.38;;;12.10;99.90;;;;;;5030496;28;20092;-71
2021/12/30 11:55:57;;;;;;;34.72;7.70;;;12.10;99.90;;;;;;5029352;28;20080;-70
2021/12/30 11:58:29;;;;;;;37.63;7.80;;;12.10;99.90;;;;;;5030437;28;20034;-70
2021/12/30 12:00:59;;;;;;;31.65;7.47;;;12.10;99.90;;;;;;5029342;28;20049;-71
2021/12/30 12:03:31;;;;;;;37.05;8.55;;;12.10;99.90;;;;;;5045745;28;20453;-71
2021/12/30 12:05:57;;;;;;;36.70;8.75;;;12.10;99.90;;;;;;5046012;28;20037;-69
2021/12/30 12:08:28;;;;;;;34.70;7.93;;;12.10;99.90;;;;;;5030663;28;20398;-70
2021/12/30 12:11:23;;;;;;;34.30;7.32;;;12.10;99.90;;;;;;5031147;28;20056;-71
2021/12/30 12:13:51;;;;;;;32.00;7.78;;;12.10;99.90;;;;;;5034200;28;20120;-71
2021/12/30 12:16:47;;;;;;;33.47;6.97;;;12.10;99.90;;;;;;5034359;28;20069;-70
2021/12/30 12:19:13;;;;;;;42.22;9.75;;;12.10;99.90;;;;;;5032767;28;20095;-70
2021/12/30 12:21:48;;;;;;;32.78;6.95;;;12.10;99.90;;;;;;5032345;28;20494;-71
2021/12/30 12:24:25;;;;;;;35.97;7.55;;;12.10;99.90;;;;;;5032516;28;20045;-71
2021/12/30 12:26:54;;;;;;;38.45;7.75;;;12.20;99.90;;;;;;5032520;28;20049;-70
2021/12/30 12:29:33;;;;;;;33.35;7.00;;;12.20;99.90;;;;;;5032844;28;20457;-70
2021/12/30 12:32:09;;;;;;;39.47;8.20;;;12.20;99.90;;;;;;5033548;28;20045;-71
2021/12/30 12:34:50;;;;;;;42.58;7.90;;;12.20;99.90;;;;;;5032759;28;20033;-71
2021/12/30 12:37:33;;;;;;;32.47;6.35;;;12.20;99.90;;;;;;5033952;28;20033;-70
2021/12/30 12:40:00;;;;;;;24.77;5.85;;;12.20;99.90;;;;;;5048770;28;20061;-70